Česky Dansk Deutsch English Español Suomi Français Magyar Italiano Nederlands norsk Polski Português svenska Türkçe

 

Het Weer

Dobbiaco (Italië)

17:55, 20 augustus 2016 (GMT)

NWNNE
WE
SWSSE
Home            
Dobbiaco Passo Rolle Bolzano Zell Am See Schwaz Heliport Aviano Aviano Usaf Innsbruck-Flughafen Udine / Rivolto Udine / Campoformido Tarvisio Paganella Treviso / Istrana Treviso / S. Angelo Resia Pass Salzburg-Flughafen Venezia / Tessera Vicenza Ronchi Dei Legionari Dova Area Control Center Altenstadt Pula Aerodrome Klagenfurt-Flughafen

Om een weerknop op uw website of weblog te plaatsen, copieer onderstaande code en plak die in uw pagina. In het eerste vakje staat HTML-code, in het tweede vakje UBB-code.


Add to Google

Details

Visibility:Greater than 10000 m, 10 km, 32800 ft, 6.2 miles
Clouds:Geschlossene Wolkendecke at 3000 ft, 914 m
Het Weer:light rain
Temperature:17°C, 63°F
Dew-point:16°C, 61°F
Atmospheric pressure:1020 hPa, 765.1 mmHg, 30.12 inHg, 1.007 atm
Relative humidity:93.8 %
METAR:LIVD 201755Z 00000KT 9999 -RA OVC030 17/16 Q1020 RMK OVC VIS MIN 9999

Snelkoppelingen

Actuele weersinformatie van de hele wereld. Voeg locaties toe met het plus (+) symbool. Deze snelkoppelingen kunnen worden toegevoegd aan Google.

Lid van de Technetium groep

website free tracking
StatCounter NetStat W3C Validator

20-05-2022 04:35:19
astro.technetium.be money.technetium.be phote.technetium.be tafeltennistafel.technetium.be www.ligfiets.net